Time;durP1;ratioP1;P1;durP2;ratioP2;P2;SDS_P1;SDS_P2;PMS_P1;PMS_P2;Temp;Humidity;BMP_temperature;BMP_pressure;BME280_temperature;BME280_humidity;BME280_pressure;Samples;Min_cycle;Max_cycle;Signal;HPM_P1;HPM_P2
2021/09/06 00:01:36;;;;;;;11.33;4.50;;;;;;;18.92;48.55;102081.56;6152614;23;20157;-65
2021/09/06 00:04:02;;;;;;;9.93;4.50;;;;;;;18.77;48.73;102076.94;6152788;23;20155;-64
2021/09/06 00:06:27;;;;;;;9.13;4.20;;;;;;;18.82;48.69;102087.56;6153061;23;20158;-64
2021/09/06 00:08:53;;;;;;;6.73;3.83;;;;;;;18.87;48.39;102086.97;6152681;23;20181;-64
2021/09/06 00:11:19;;;;;;;8.93;3.93;;;;;;;18.87;48.09;102084.16;6152326;23;20246;-64
2021/09/06 00:13:44;;;;;;;9.83;4.00;;;;;;;18.95;47.77;102091.13;6152753;23;20153;-64
2021/09/06 00:16:10;;;;;;;7.30;3.60;;;;;;;19.00;47.73;102102.56;6153142;23;20225;-64
2021/09/06 00:18:36;;;;;;;8.70;4.10;;;;;;;18.70;47.78;102063.09;6152829;23;20178;-65
2021/09/06 00:21:03;;;;;;;7.83;3.90;;;;;;;18.84;47.34;102085.09;6152927;23;20156;-64
2021/09/06 00:23:29;;;;;;;7.57;3.83;;;;;;;19.03;47.56;102109.31;6152010;23;20158;-64
2021/09/06 00:25:55;;;;;;;8.47;4.00;;;;;;;18.98;46.96;102115.50;6153095;23;20184;-65
2021/09/06 00:28:21;;;;;;;8.83;4.00;;;;;;;18.63;47.18;102054.94;6152905;23;20522;-64
2021/09/06 00:30:46;;;;;;;6.67;3.73;;;;;;;19.12;47.03;102124.22;6153057;23;20605;-64
2021/09/06 00:33:12;;;;;;;8.13;3.87;;;;;;;19.02;47.23;102118.97;6151688;23;20205;-64
2021/09/06 00:35:38;;;;;;;7.53;3.40;;;;;;;18.84;47.01;102116.75;6152774;23;20153;-64
2021/09/06 00:38:05;;;;;;;9.03;3.70;;;;;;;18.89;47.56;102133.03;6153101;23;20236;-64
2021/09/06 00:40:31;;;;;;;8.90;3.70;;;;;;;18.56;47.65;102080.44;6152131;23;20154;-64
2021/09/06 00:42:56;;;;;;;11.90;3.40;;;;;;;18.90;47.29;102129.00;6152022;23;20158;-65
2021/09/06 00:45:22;;;;;;;6.57;3.27;;;;;;;18.80;47.39;102123.75;6152563;23;20216;-64
2021/09/06 00:47:48;;;;;;;11.20;3.63;;;;;;;18.50;47.36;102080.25;6126488;23;20212;-64
2021/09/06 00:50:15;;;;;;;8.10;3.80;;;;;;;18.85;47.26;102142.84;6152304;23;20154;-64
2021/09/06 00:52:43;;;;;;;8.63;3.60;;;;;;;18.80;47.36;102149.81;6151906;23;20151;-64
2021/09/06 00:55:10;;;;;;;7.10;3.87;;;;;;;18.76;47.14;102142.75;6152625;23;20279;-64
2021/09/06 00:57:36;;;;;;;7.80;3.83;;;;;;;18.55;47.15;102101.34;6152640;23;20154;-64
2021/09/06 01:00:05;;;;;;;8.00;3.20;;;;;;;18.59;47.41;102125.25;6152463;23;20186;-64
2021/09/06 01:02:30;;;;;;;9.07;3.40;;;;;;;18.66;47.54;102130.63;6150552;23;20623;-65
2021/09/06 01:04:56;;;;;;;10.00;3.73;;;;;;;18.27;47.20;102086.97;6152462;23;20241;-65
2021/09/06 01:07:21;;;;;;;6.60;3.33;;;;;;;18.70;47.36;102155.78;6152277;23;20157;-65
2021/09/06 01:09:47;;;;;;;7.07;3.70;;;;;;;18.71;47.11;102157.34;6152777;23;20146;-64
2021/09/06 01:12:12;;;;;;;8.73;3.83;;;;;;;18.66;47.00;102158.72;6151305;23;20153;-65
2021/09/06 01:14:38;;;;;;;6.23;3.60;;;;;;;18.68;46.98;102163.88;6152411;23;20160;-65
2021/09/06 01:17:04;;;;;;;7.50;3.50;;;;;;;18.63;46.94;102158.84;6152466;23;20155;-64
2021/09/06 01:19:30;;;;;;;9.63;3.97;;;;;;;18.67;46.90;102176.34;6152520;23;20966;-64
2021/09/06 01:21:55;;;;;;;7.20;3.53;;;;;;;18.54;46.76;102139.06;6151514;23;20180;-65
2021/09/06 01:24:21;;;;;;;9.93;3.77;;;;;;;18.66;46.51;102171.97;6152240;23;20175;-64
2021/09/06 01:26:47;;;;;;;8.93;3.20;;;;;;;18.59;45.99;102172.19;6152551;23;20153;-65
2021/09/06 01:29:13;;;;;;;6.53;3.53;;;;;;;18.60;45.67;102166.13;6152300;23;20149;-64
2021/09/06 01:31:39;;;;;;;5.30;3.17;;;;;;;18.62;45.74;102169.28;6151280;23;20222;-64
2021/09/06 01:34:07;;;;;;;7.03;3.43;;;;;;;18.38;45.58;102142.00;6125993;23;20638;-64
2021/09/06 01:36:32;;;;;;;8.97;3.30;;;;;;;18.52;45.57;102170.41;6151985;23;20157;-64
2021/09/06 01:38:59;;;;;;;9.27;3.10;;;;;;;18.50;45.61;102169.28;6152450;23;20182;-65
2021/09/06 01:41:24;;;;;;;10.73;3.50;;;;;;;18.17;45.28;102117.41;6151209;23;20182;-64
2021/09/06 01:43:50;;;;;;;4.83;3.17;;;;;;;18.31;45.79;102156.25;6152201;23;20701;-64
2021/09/06 01:46:15;;;;;;;7.03;3.30;;;;;;;18.37;45.58;102171.31;6142309;23;20304;-65
2021/09/06 01:48:41;;;;;;;6.67;2.87;;;;;;;18.32;45.56;102163.41;6123024;23;20225;-64
2021/09/06 01:51:06;;;;;;;5.90;3.10;;;;;;;18.37;45.33;102177.69;6122836;23;20158;-64
2021/09/06 01:53:32;;;;;;;5.87;3.03;;;;;;;18.35;45.80;102171.75;6121135;23;20201;-65
2021/09/06 01:55:57;;;;;;;7.07;2.67;;;;;;;18.37;45.12;102177.69;6123005;23;20154;-65
2021/09/06 01:58:22;;;;;;;4.77;2.83;;;;;;;18.40;44.44;102188.03;6122505;23;20516;-65
2021/09/06 02:00:48;;;;;;;6.00;3.10;;;;;;;18.37;44.83;102185.34;6122976;23;20158;-63
2021/09/06 02:03:13;;;;;;;5.67;2.80;;;;;;;17.94;44.77;102116.47;6121010;23;20150;-64
2021/09/06 02:05:39;;;;;;;7.43;2.97;;;;;;;18.45;44.72;102189.50;6123013;23;20600;-64
2021/09/06 02:08:05;;;;;;;4.37;2.70;;;;;;;18.26;45.01;102145.56;6122600;23;20150;-64
2021/09/06 02:10:30;;;;;;;5.63;3.13;;;;;;;18.39;45.39;102166.03;6122658;23;20162;-64
2021/09/06 02:12:55;;;;;;;7.83;3.03;;;;;;;18.51;45.50;102191.28;6121420;23;20290;-64
2021/09/06 02:15:21;;;;;;;5.40;2.90;;;;;;;18.57;45.50;102188.72;6122462;23;20185;-64
2021/09/06 02:17:46;;;;;;;5.30;3.13;;;;;;;18.71;45.95;102193.84;6124926;23;20152;-64
2021/09/06 02:20:12;;;;;;;8.33;3.23;;;;;;;18.62;46.37;102196.59;6124654;23;20236;-64
2021/09/06 02:22:38;;;;;;;6.40;2.87;;;;;;;18.62;46.55;102194.53;6123341;23;20154;-64
2021/09/06 02:25:04;;;;;;;7.23;2.97;;;;;;;18.74;45.73;102199.38;6124828;23;20177;-64
2021/09/06 02:27:31;;;;;;;7.53;2.87;;;;;;;18.74;45.47;102204.19;6124380;23;20155;-64
2021/09/06 02:29:56;;;;;;;4.70;2.77;;;;;;;18.61;45.63;102183.75;6124872;23;20158;-65
2021/09/06 02:32:22;;;;;;;6.93;2.97;;;;;;;18.74;44.84;102202.19;6123745;23;20559;-64
2021/09/06 02:34:48;;;;;;;4.10;2.70;;;;;;;18.80;45.10;102219.25;6123917;23;20576;-64
2021/09/06 02:37:13;;;;;;;5.03;2.90;;;;;;;18.82;45.19;102211.94;6124555;23;20182;-64
2021/09/06 02:39:39;;;;;;;4.63;2.93;;;;;;;18.85;45.71;102219.47;6124639;23;20179;-64
2021/09/06 02:42:04;;;;;;;7.97;3.37;;;;;;;18.88;45.74;102223.41;6123721;23;20150;-64
2021/09/06 02:44:30;;;;;;;5.73;3.00;;;;;;;18.54;45.45;102167.94;6123324;23;20508;-64
2021/09/06 02:46:56;;;;;;;4.17;2.60;;;;;;;18.78;45.75;102202.06;6142066;23;20668;-64
2021/09/06 02:49:22;;;;;;;5.90;3.10;;;;;;;18.51;46.03;102157.59;6154077;23;20539;-64
2021/09/06 02:51:47;;;;;;;5.97;2.83;;;;;;;18.53;46.31;102159.97;6153390;23;20157;-64
2021/09/06 02:54:15;;;;;;;6.23;2.73;;;;;;;18.91;46.19;102222.50;6153375;23;20401;-64
2021/09/06 02:56:41;;;;;;;5.53;2.67;;;;;;;18.63;45.11;102181.28;6153990;23;20158;-64
2021/09/06 02:59:06;;;;;;;6.53;3.00;;;;;;;18.91;45.22;102223.28;6153567;23;20185;-65
2021/09/06 03:01:32;;;;;;;4.83;2.90;;;;;;;18.55;44.81;102174.31;6153110;23;20239;-65
2021/09/06 03:03:57;;;;;;;6.70;3.00;;;;;;;18.79;44.67;102223.28;6153205;23;20156;-64
2021/09/06 03:06:23;;;;;;;4.50;2.60;;;;;;;18.91;44.73;102223.28;6153556;23;20262;-65
2021/09/06 03:08:49;;;;;;;4.93;2.70;;;;;;;18.78;44.47;102202.06;6153808;23;20150;-64
2021/09/06 03:11:14;;;;;;;5.20;2.77;;;;;;;18.84;44.31;102220.69;6153079;23;20156;-64
2021/09/06 03:13:39;;;;;;;6.10;2.80;;;;;;;18.82;44.36;102233.63;6153108;23;20165;-65
2021/09/06 03:16:05;;;;;;;4.47;2.50;;;;;;;18.82;44.53;102237.22;6153201;23;20153;-65
2021/09/06 03:18:30;;;;;;;4.13;2.63;;;;;;;18.90;44.58;102235.75;6153315;23;20181;-65
2021/09/06 03:20:56;;;;;;;4.33;2.30;;;;;;;18.91;44.61;102239.34;6153872;23;20165;-64
2021/09/06 03:23:21;;;;;;;6.37;2.33;;;;;;;18.88;43.99;102237.44;6152669;23;20200;-65
2021/09/06 03:25:47;;;;;;;4.07;2.53;;;;;;;18.83;43.96;102240.81;6153154;23;20168;-65
2021/09/06 03:28:13;;;;;;;6.00;2.60;;;;;;;18.88;43.87;102245.88;6153082;23;20155;-65
2021/09/06 03:30:38;;;;;;;5.07;2.50;;;;;;;18.92;43.52;102252.16;6127458;23;20162;-64
2021/09/06 03:33:04;;;;;;;5.17;2.70;;;;;;;18.90;43.33;102249.00;6152516;23;20209;-64
2021/09/06 03:35:29;;;;;;;4.33;2.47;;;;;;;18.88;43.93;102251.50;6152955;23;20568;-64
2021/09/06 03:37:55;;;;;;;6.07;2.77;;;;;;;18.86;44.65;102245.53;6153640;23;20177;-64
2021/09/06 03:40:20;;;;;;;7.33;2.67;;;;;;;18.89;44.12;102258.69;6153718;23;20495;-64
2021/09/06 03:42:46;;;;;;;4.13;2.30;;;;;;;18.89;44.61;102265.06;6152386;23;20157;-64
2021/09/06 03:45:12;;;;;;;8.03;2.90;;;;;;;18.88;45.02;102265.53;6152801;23;20599;-64
2021/09/06 03:47:37;;;;;;;4.67;2.63;;;;;;;18.84;45.19;102262.81;6153186;23;20279;-64
2021/09/06 03:50:03;;;;;;;5.80;3.00;;;;;;;18.74;43.68;102260.38;6153595;23;20243;-64
2021/09/06 03:52:29;;;;;;;5.17;2.90;;;;;;;18.57;43.64;102262.50;6152410;23;20225;-64
2021/09/06 03:54:54;;;;;;;5.03;3.00;;;;;;;18.63;43.99;102259.94;6153290;23;20663;-64
2021/09/06 03:57:20;;;;;;;9.17;3.40;;;;;;;18.67;44.24;102266.22;6152796;23;20183;-64
2021/09/06 03:59:45;;;;;;;4.33;2.47;;;;;;;18.69;44.23;102280.59;6151584;23;20187;-65
2021/09/06 04:02:11;;;;;;;6.20;2.60;;;;;;;18.73;43.81;102265.19;6150777;23;20153;-64
2021/09/06 04:04:36;;;;;;;5.80;2.43;;;;;;;18.44;43.06;102236.44;6152548;23;20153;-65
2021/09/06 04:07:02;;;;;;;5.03;2.40;;;;;;;18.27;42.90;102209.66;6140609;23;20588;-64
2021/09/06 04:09:29;;;;;;;4.87;2.30;;;;;;;18.62;43.39;102284.41;6152975;23;20157;-64
2021/09/06 04:11:55;;;;;;;3.83;2.30;;;;;;;18.62;43.44;102284.41;6152666;23;20157;-64
2021/09/06 04:14:22;;;;;;;3.80;2.60;;;;;;;18.65;43.04;102282.72;6152631;23;20482;-64
2021/09/06 04:16:48;;;;;;;5.57;2.40;;;;;;;18.63;42.65;102285.97;6152463;23;20224;-64
2021/09/06 04:19:13;;;;;;;6.33;2.00;;;;;;;18.55;42.05;102283.81;6151420;23;20216;-64
2021/09/06 04:21:39;;;;;;;4.03;2.40;;;;;;;18.46;42.32;102273.25;6152293;23;20622;-64
2021/09/06 04:24:04;;;;;;;3.70;2.10;;;;;;;18.59;41.72;102287.31;6153046;23;20215;-64
2021/09/06 04:26:30;;;;;;;5.10;2.30;;;;;;;18.48;41.93;102270.00;6152348;23;20162;-64
2021/09/06 04:28:55;;;;;;;4.23;2.30;;;;;;;18.65;41.59;102291.94;6153169;23;20174;-64
2021/09/06 04:31:21;;;;;;;5.70;2.50;;;;;;;18.54;41.12;102288.66;6152060;23;20154;-64
2021/09/06 04:33:46;;;;;;;7.23;2.30;;;;;;;18.05;41.34;102208.72;6152429;23;20498;-64
2021/09/06 04:36:12;;;;;;;4.40;2.10;;;;;;;18.67;41.82;102300.69;6152823;23;20154;-64
2021/09/06 04:38:37;;;;;;;7.33;2.23;;;;;;;18.71;41.12;102309.81;6151903;23;20174;-64
2021/09/06 04:41:03;;;;;;;4.40;2.20;;;;;;;18.41;40.30;102287.06;6126718;23;20149;-64
2021/09/06 04:43:28;;;;;;;5.57;2.17;;;;;;;18.61;40.63;102321.34;6151801;23;20163;-64
2021/09/06 04:45:53;;;;;;;3.70;2.30;;;;;;;18.64;40.25;102323.28;6152614;23;20733;-64
2021/09/06 04:48:19;;;;;;;5.03;2.60;;;;;;;18.62;40.51;102331.38;6151919;23;20142;-64
2021/09/06 04:50:44;;;;;;;6.27;2.47;;;;;;;18.54;40.60;102330.78;6152894;23;20562;-64
2021/09/06 04:53:10;;;;;;;4.70;2.10;;;;;;;18.54;40.77;102339.22;6151818;23;20157;-64
2021/09/06 04:55:35;;;;;;;5.77;2.30;;;;;;;18.55;40.54;102342.78;6152772;23;20159;-64
2021/09/06 04:58:01;;;;;;;4.03;1.90;;;;;;;18.68;40.75;102341.56;6152338;23;20608;-64
2021/09/06 05:00:26;;;;;;;3.70;2.10;;;;;;;18.78;41.41;102348.91;6152579;23;20151;-64
2021/09/06 05:02:52;;;;;;;6.33;2.20;;;;;;;18.80;40.96;102345.66;6151925;23;20200;-64
2021/09/06 05:05:18;;;;;;;8.10;2.30;;;;;;;18.77;41.28;102347.31;6152515;23;20233;-64
2021/09/06 05:07:43;;;;;;;3.10;1.87;;;;;;;18.87;41.94;102353.84;6152140;23;20771;-64
2021/09/06 05:10:09;;;;;;;4.77;2.13;;;;;;;18.85;42.40;102350.69;6153113;23;20149;-64
2021/09/06 05:12:34;;;;;;;10.87;2.60;;;;;;;18.44;42.28;102289.78;6151474;23;20181;-65
2021/09/06 05:15:00;;;;;;;8.57;2.47;;;;;;;18.79;42.66;102358.88;6152489;23;20232;-64
2021/09/06 05:17:26;;;;;;;6.93;2.40;;;;;;;18.80;42.61;102352.06;6152481;23;20160;-65
2021/09/06 05:19:51;;;;;;;5.33;1.90;;;;;;;18.84;41.77;102363.94;6152105;23;20185;-64
2021/09/06 05:22:17;;;;;;;3.70;2.13;;;;;;;18.83;41.79;102372.84;6151719;23;20161;-64
2021/09/06 05:24:42;;;;;;;5.30;2.47;;;;;;;18.77;42.31;102369.78;6152263;23;20514;-65
2021/09/06 05:27:08;;;;;;;5.33;2.50;;;;;;;18.38;42.70;102310.41;6152436;23;20218;-64
2021/09/06 05:29:34;;;;;;;3.60;2.20;;;;;;;18.85;43.04;102371.16;6152016;23;20556;-63
2021/09/06 05:31:59;;;;;;;9.17;3.33;;;;;;;18.89;44.20;102374.63;6151909;23;20185;-64
2021/09/06 05:34:25;;;;;;;8.87;3.73;;;;;;;18.80;45.98;102380.16;6151898;23;20149;-65
2021/09/06 05:36:51;;;;;;;7.63;3.83;;;;;;;18.73;46.80;102383.16;6152980;23;20157;-64
2021/09/06 05:39:16;;;;;;;6.03;3.67;;;;;;;18.45;48.08;102380.38;6151670;23;20184;-64
2021/09/06 05:41:44;;;;;;;6.23;3.80;;;;;;;18.42;48.81;102384.88;6152168;23;20264;-64
2021/09/06 05:44:10;;;;;;;6.17;3.50;;;;;;;17.98;49.90;102323.16;6150513;23;20242;-64
2021/09/06 05:46:35;;;;;;;8.27;3.50;;;;;;;18.33;50.41;102384.75;6151788;23;20217;-64
2021/09/06 05:49:01;;;;;;;10.13;3.50;;;;;;;17.98;51.42;102370.84;6151766;23;20143;-64
2021/09/06 05:51:26;;;;;;;11.13;3.50;;;;;;;18.11;51.95;102396.97;6151359;23;20158;-64
2021/09/06 05:53:52;;;;;;;6.20;3.40;;;;;;;17.69;53.29;102384.81;6151971;23;20212;-63
2021/09/06 05:56:20;;;;;;;6.27;3.23;;;;;;;17.47;54.51;102400.59;6152108;23;20198;-64
2021/09/06 05:58:46;;;;;;;7.30;3.40;;;;;;;16.88;55.34;102351.56;6152357;23;20177;-63
2021/09/06 06:01:12;;;;;;;5.53;3.40;;;;;;;17.16;55.90;102402.88;6150856;23;20229;-64
2021/09/06 06:03:37;;;;;;;7.07;3.30;;;;;;;17.03;56.65;102404.78;6151920;23;20236;-64
2021/09/06 06:06:03;;;;;;;5.47;2.87;;;;;;;16.89;56.85;102393.09;6152607;23;20157;-64
2021/09/06 06:08:28;;;;;;;6.33;3.47;;;;;;;16.31;57.13;102319.16;6151894;23;20145;-64
2021/09/06 06:10:54;;;;;;;6.60;3.33;;;;;;;16.65;57.72;102405.63;6151726;23;20229;-64
2021/09/06 06:13:19;;;;;;;5.97;3.33;;;;;;;16.62;57.59;102397.31;6151039;23;20158;-64
2021/09/06 06:15:45;;;;;;;10.20;3.20;;;;;;;16.92;57.11;102404.25;6152142;23;20624;-64
2021/09/06 06:18:10;;;;;;;4.60;2.90;;;;;;;17.10;56.15;102401.81;6152144;23;20253;-64
2021/09/06 06:20:35;;;;;;;7.37;3.00;;;;;;;17.37;55.84;102401.63;6151352;23;20153;-63
2021/09/06 06:23:01;;;;;;;7.53;2.90;;;;;;;17.49;54.55;102398.13;6151319;23;20674;-64
2021/09/06 06:25:26;;;;;;;5.53;2.90;;;;;;;17.58;53.83;102400.31;6152049;23;20632;-64
2021/09/06 06:27:52;;;;;;;5.17;3.07;;;;;;;17.70;53.03;102397.59;6152115;23;20151;-64
2021/09/06 06:30:18;;;;;;;6.33;3.00;;;;;;;17.88;52.75;102412.75;6151623;23;20597;-64
2021/09/06 06:32:44;;;;;;;5.83;2.63;;;;;;;17.87;51.91;102407.59;6150935;23;20224;-65
2021/09/06 06:35:09;;;;;;;6.53;2.90;;;;;;;17.92;51.56;102415.50;6152067;23;20154;-64
2021/09/06 06:37:35;;;;;;;5.30;2.60;;;;;;;17.98;51.13;102424.16;6151919;23;20588;-64
2021/09/06 06:40:00;;;;;;;6.83;2.50;;;;;;;18.20;49.28;102423.16;6151984;23;20527;-65
2021/09/06 06:42:26;;;;;;;3.93;2.30;;;;;;;17.97;47.40;102372.09;6150245;23;20156;-64
2021/09/06 06:44:51;;;;;;;6.00;2.27;;;;;;;18.31;46.81;102420.06;6152367;23;20150;-64
2021/09/06 06:47:17;;;;;;;4.40;2.57;;;;;;;18.23;47.04;102416.66;6151379;23;20203;-65
2021/09/06 06:49:42;;;;;;;5.70;2.10;;;;;;;18.15;46.82;102426.50;6151626;23;20162;-64
2021/09/06 06:52:08;;;;;;;5.20;2.20;;;;;;;18.24;47.18;102429.47;6150791;23;20233;-64
2021/09/06 06:54:33;;;;;;;5.03;2.23;;;;;;;18.22;47.08;102439.56;6151565;23;20163;-64
2021/09/06 06:56:59;;;;;;;5.10;2.00;;;;;;;18.25;48.00;102436.66;6125902;23;20220;-64
2021/09/06 06:59:24;;;;;;;7.50;2.53;;;;;;;18.17;46.93;102446.47;6151679;23;20232;-64
2021/09/06 07:01:50;;;;;;;6.30;1.90;;;;;;;18.21;47.17;102435.19;6151112;23;20508;-64
2021/09/06 07:04:16;;;;;;;4.47;2.13;;;;;;;18.02;47.16;102426.41;6153485;23;20588;-64
2021/09/06 07:06:41;;;;;;;7.23;2.20;;;;;;;18.22;46.97;102447.97;6154111;23;20160;-64
2021/09/06 07:09:07;;;;;;;7.33;2.30;;;;;;;18.22;47.24;102457.16;6153891;23;20157;-65
2021/09/06 07:11:32;;;;;;;2.93;1.90;;;;;;;18.23;46.98;102453.91;6152567;23;20161;-64
2021/09/06 07:13:58;;;;;;;4.13;1.90;;;;;;;17.98;47.34;102410.13;6153993;23;20150;-64
2021/09/06 07:16:23;;;;;;;5.27;2.10;;;;;;;18.02;47.66;102409.59;6153456;23;20153;-65
2021/09/06 07:18:50;;;;;;;5.23;2.20;;;;;;;18.17;47.52;102459.72;6153748;23;20211;-63
2021/09/06 07:21:16;;;;;;;4.83;2.13;;;;;;;18.04;47.33;102452.00;6152659;23;20155;-64
2021/09/06 07:23:41;;;;;;;9.40;2.47;;;;;;;17.74;48.13;102423.56;6152930;23;20160;-64
2021/09/06 07:26:07;;;;;;;6.37;2.07;;;;;;;18.02;48.43;102470.50;6152328;23;20447;-64
2021/09/06 07:28:32;;;;;;;7.30;2.20;;;;;;;17.92;48.46;102463.19;6153097;23;20151;-64
2021/09/06 07:30:58;;;;;;;11.07;2.50;;;;;;;18.04;48.78;102471.66;6153771;23;20159;-64
2021/09/06 07:33:23;;;;;;;6.63;2.03;;;;;;;17.98;49.12;102475.44;6151619;23;20213;-64
2021/09/06 07:35:49;;;;;;;6.23;2.30;;;;;;;17.41;49.43;102405.16;6153805;23;20163;-64
2021/09/06 07:38:14;;;;;;;4.97;2.30;;;;;;;17.77;50.13;102473.94;6153299;23;20157;-64
2021/09/06 07:40:40;;;;;;;7.53;2.23;;;;;;;17.82;49.85;102480.25;6153542;23;20167;-64
2021/09/06 07:43:05;;;;;;;6.27;2.30;;;;;;;17.76;50.50;102479.97;6125978;23;20164;-65
2021/09/06 07:45:31;;;;;;;5.63;2.30;;;;;;;17.74;51.24;102485.25;6152841;23;20182;-64
2021/09/06 07:47:56;;;;;;;4.27;2.13;;;;;;;17.88;50.57;102484.91;6153271;23;20156;-64
2021/09/06 07:50:22;;;;;;;7.23;2.50;;;;;;;17.90;50.74;102495.69;6153300;23;20652;-64
2021/09/06 07:52:47;;;;;;;6.80;2.57;;;;;;;18.08;50.08;102489.19;6152485;23;20219;-64
2021/09/06 07:55:13;;;;;;;5.13;2.40;;;;;;;18.16;50.06;102491.84;6151150;23;20227;-64
2021/09/06 07:57:39;;;;;;;6.83;2.30;;;;;;;18.18;50.06;102488.13;6153352;23;20233;-65
2021/09/06 08:00:05;;;;;;;4.30;2.17;;;;;;;18.18;50.00;102499.34;6153322;23;20242;-64
2021/09/06 08:02:48;;;;;;;4.03;2.50;;;;;;;18.22;49.28;102498.47;6152086;23;20180;-64
2021/09/06 08:05:17;;;;;;;4.13;2.00;;;;;;;18.36;48.32;102490.50;6152606;23;20572;-64
2021/09/06 08:07:42;;;;;;;7.10;2.27;;;;;;;18.45;47.72;102493.47;6152983;23;20163;-64
2021/09/06 08:10:08;;;;;;;6.27;2.70;;;;;;;18.59;46.86;102493.09;6153269;23;20148;-64
2021/09/06 08:12:33;;;;;;;4.90;2.27;;;;;;;18.68;46.68;102493.22;6150218;23;20224;-64
2021/09/06 08:14:59;;;;;;;4.43;2.40;;;;;;;18.67;45.09;102491.66;6152614;23;20157;-64
2021/09/06 08:17:25;;;;;;;4.67;2.40;;;;;;;18.52;44.79;102461.63;6152691;23;20160;-64
2021/09/06 08:19:51;;;;;;;5.80;2.40;;;;;;;19.00;44.53;102492.34;6153246;23;20189;-64
2021/09/06 08:22:16;;;;;;;3.67;2.27;;;;;;;19.05;43.99;102492.59;6150787;23;20165;-65
2021/09/06 08:24:44;;;;;;;5.37;2.60;;;;;;;19.10;43.42;102494.84;6152046;23;20161;-64
2021/09/06 08:27:10;;;;;;;5.83;2.33;;;;;;;18.60;42.45;102418.84;6152860;23;20150;-64
2021/09/06 08:29:35;;;;;;;5.73;2.53;;;;;;;18.36;41.72;102386.66;6153109;23;20636;-64
2021/09/06 08:32:01;;;;;;;3.93;2.50;;;;;;;19.17;42.53;102496.63;6152505;23;20150;-65
2021/09/06 08:34:26;;;;;;;5.37;2.43;;;;;;;19.18;42.95;102490.56;6151691;23;20162;-64
2021/09/06 08:36:52;;;;;;;7.40;2.40;;;;;;;19.12;41.11;102446.59;6152750;23;20225;-64
2021/09/06 08:39:17;;;;;;;3.30;2.00;;;;;;;19.61;41.33;102490.88;6152653;23;20527;-64
2021/09/06 08:41:43;;;;;;;5.77;2.17;;;;;;;19.56;40.43;102468.16;6126484;23;20188;-65
2021/09/06 08:44:09;;;;;;;4.97;2.30;;;;;;;19.61;40.53;102496.50;6152764;23;20154;-64
2021/09/06 08:46:35;;;;;;;6.43;2.13;;;;;;;19.72;40.57;102496.16;6152260;23;20550;-64
2021/09/06 08:49:01;;;;;;;6.37;2.30;;;;;;;19.77;40.23;102493.56;6152936;23;20228;-65
2021/09/06 08:51:26;;;;;;;6.80;2.20;;;;;;;20.06;40.22;102496.25;6151954;23;20177;-64
2021/09/06 08:53:52;;;;;;;3.50;2.20;;;;;;;20.04;39.85;102490.25;6152655;23;20149;-65
2021/09/06 08:56:20;;;;;;;3.87;2.30;;;;;;;19.62;39.81;102402.44;6152697;23;20557;-65
2021/09/06 08:58:46;;;;;;;3.60;1.93;;;;;;;20.30;39.39;102489.78;6152731;23;20583;-64
2021/09/06 09:01:11;;;;;;;4.00;2.27;;;;;;;19.91;39.17;102427.59;6151940;23;20238;-64
2021/09/06 09:03:37;;;;;;;3.97;1.97;;;;;;;20.38;38.71;102490.34;6152388;23;20177;-64
2021/09/06 09:06:04;;;;;;;6.37;2.20;;;;;;;20.47;38.78;102493.25;6152934;23;20205;-64
2021/09/06 09:08:31;;;;;;;6.17;2.27;;;;;;;20.47;39.29;102490.41;6150359;23;20168;-65
2021/09/06 09:11:04;;;;;;;4.67;2.30;;;;;;;20.46;39.43;102488.84;6152901;23;20154;-64
2021/09/06 09:13:32;;;;;;;3.97;2.10;;;;;;;20.68;38.60;102484.78;6151574;23;20153;-65
2021/09/06 09:15:58;;;;;;;6.07;2.17;;;;;;;20.65;38.45;102466.00;6152732;23;20150;-65
2021/09/06 09:18:26;;;;;;;4.27;2.43;;;;;;;20.88;38.55;102481.69;6152263;23;20185;-64
2021/09/06 09:21:11;;;;;;;6.13;2.60;;;;;;;21.04;39.43;102485.09;6152657;23;20150;-65
2021/09/06 09:23:41;;;;;;;7.77;2.40;;;;;;;21.16;39.29;102480.63;6152484;23;20166;-65
2021/09/06 09:26:07;;;;;;;6.20;2.10;;;;;;;21.16;38.62;102470.13;6152360;23;20150;-65
2021/09/06 09:28:37;;;;;;;6.43;2.30;;;;;;;21.10;39.41;102472.00;6152243;23;20154;-65
2021/09/06 09:31:09;;;;;;;4.37;2.40;;;;;;;21.12;39.27;102474.31;6152557;23;20597;-65
2021/09/06 09:33:54;;;;;;;3.80;2.13;;;;;;;21.10;39.39;102477.63;6151844;23;20149;-64
2021/09/06 09:36:37;;;;;;;6.90;2.10;;;;;;;21.06;37.77;102468.50;6152132;23;20142;-64
2021/09/06 09:39:07;;;;;;;4.73;2.40;;;;;;;21.14;36.31;102466.22;6152769;23;20648;-65
2021/09/06 09:41:32;;;;;;;3.80;2.00;;;;;;;21.25;35.47;102467.38;6151229;23;20153;-65
2021/09/06 09:44:26;;;;;;;5.40;2.10;;;;;;;21.37;35.72;102463.66;6152141;23;20157;-65
2021/09/06 09:46:58;;;;;;;5.13;2.17;;;;;;;21.12;35.65;102418.75;6152061;23;20657;-65
2021/09/06 09:49:25;;;;;;;4.70;2.60;;;;;;;21.69;35.37;102463.19;6152011;23;20157;-64
2021/09/06 09:51:52;;;;;;;5.23;2.43;;;;;;;21.94;34.26;102462.16;6151949;23;20648;-64
2021/09/06 09:54:18;;;;;;;5.80;2.10;;;;;;;22.04;34.47;102446.81;6151899;23;20150;-65
2021/09/06 09:56:45;;;;;;;6.73;2.30;;;;;;;22.23;33.25;102456.88;6152344;23;20181;-64
2021/09/06 09:59:12;;;;;;;3.90;2.20;;;;;;;22.22;32.80;102446.84;6152111;23;20256;-65
2021/09/06 10:01:43;;;;;;;5.33;2.57;;;;;;;22.34;33.16;102452.34;6151374;23;20150;-64
2021/09/06 10:04:11;;;;;;;4.87;2.30;;;;;;;22.66;33.86;102453.75;6152507;23;20584;-64
2021/09/06 10:06:37;;;;;;;6.53;2.37;;;;;;;22.98;33.01;102439.75;6152551;23;20208;-65
2021/09/06 10:09:05;;;;;;;3.80;2.23;;;;;;;23.04;33.60;102445.56;6152175;23;20153;-65
2021/09/06 10:11:38;;;;;;;4.20;2.30;;;;;;;23.28;32.86;102437.97;6151166;23;20169;-65
2021/09/06 10:14:23;;;;;;;6.33;2.67;;;;;;;23.27;32.19;102442.03;6152058;23;20160;-65
2021/09/06 10:17:07;;;;;;;5.83;2.10;;;;;;;23.38;32.41;102439.50;6152239;23;20144;-65
2021/09/06 10:19:49;;;;;;;4.30;2.30;;;;;;;23.72;31.88;102444.66;6152044;23;20309;-65
2021/09/06 10:22:23;;;;;;;3.50;2.40;;;;;;;23.69;31.45;102442.81;6151269;23;20150;-65
2021/09/06 10:25:00;;;;;;;4.73;2.50;;;;;;;23.56;31.12;102443.03;6152119;23;20179;-65
2021/09/06 10:27:28;;;;;;;5.23;2.63;;;;;;;23.44;31.07;102440.41;6151897;23;20150;-65
2021/09/06 10:30:09;;;;;;;4.20;2.10;;;;;;;23.82;31.11;102443.34;6152309;23;20146;-65
2021/09/06 10:32:50;;;;;;;3.80;2.40;;;;;;;24.17;30.91;102435.91;6150859;23;20161;-65
2021/09/06 10:35:20;;;;;;;5.97;2.57;;;;;;;24.34;30.62;102437.81;6151910;23;20185;-65
2021/09/06 10:38:13;;;;;;;5.97;2.40;;;;;;;24.54;30.26;102442.84;6151579;23;20229;-65
2021/09/06 10:40:42;;;;;;;7.00;2.57;;;;;;;24.55;30.04;102438.75;6152518;23;20168;-65
2021/09/06 10:43:16;;;;;;;5.77;2.57;;;;;;;24.05;30.95;102431.28;6153014;23;20153;-65
2021/09/06 10:46:00;;;;;;;5.23;2.57;;;;;;;23.92;29.11;102434.38;6153605;23;20233;-64
2021/09/06 10:48:25;;;;;;;6.43;3.07;;;;;;;23.46;29.94;102395.44;6153597;23;20714;-65
2021/09/06 10:50:52;;;;;;;6.53;2.30;;;;;;;23.50;30.29;102436.44;6154629;23;20212;-65
2021/09/06 10:53:23;;;;;;;3.57;2.30;;;;;;;23.78;30.38;102435.03;6152568;23;20150;-65
2021/09/06 10:55:53;;;;;;;5.97;2.37;;;;;;;23.83;29.97;102427.94;6153954;23;20180;-65
2021/09/06 10:58:24;;;;;;;5.77;2.60;;;;;;;23.54;30.25;102424.97;6153750;23;20181;-64
2021/09/06 11:00:55;;;;;;;5.87;2.43;;;;;;;23.34;30.46;102368.16;6153979;23;20154;-65
2021/09/06 11:03:22;;;;;;;7.13;2.70;;;;;;;23.80;29.42;102411.91;6152639;23;20157;-65
2021/09/06 11:05:58;;;;;;;5.10;2.40;;;;;;;23.87;30.12;102405.88;6153926;23;20224;-65
2021/09/06 11:08:25;;;;;;;6.53;2.53;;;;;;;24.25;29.37;102414.47;6153606;23;20176;-65
2021/09/06 11:10:52;;;;;;;4.53;2.70;;;;;;;24.22;28.69;102404.88;6153838;23;20639;-65
2021/09/06 11:13:17;;;;;;;9.00;2.50;;;;;;;24.29;29.30;102398.84;6152381;23;20150;-64
2021/09/06 11:15:43;;;;;;;5.33;2.67;;;;;;;24.28;28.67;102332.09;6153724;23;20181;-65
2021/09/06 11:18:09;;;;;;;7.33;2.40;;;;;;;25.01;29.16;102388.81;6153734;23;20185;-65
2021/09/06 11:20:36;;;;;;;8.80;2.63;;;;;;;24.95;29.81;102388.75;6153401;23;20180;-65
2021/09/06 11:23:11;;;;;;;9.00;2.83;;;;;;;24.98;29.30;102387.75;6152645;23;20157;-65